JES3103 SABE-SACO
Flight info
| Callsign | JES3103 |
|---|---|
| Flight time | N/A |
| Altitude | 34000 |
| Route | ATOVO4B ATOVO UW5 ASISA ASISA1Q |
| Aircraft | A320/M-SDE3FGHIRWY/LB1 |
Departure
| Time | 2026-05-03 21:56 |
|---|---|
| Airport | Aeroparque Jorge Newbery (SABE) |
Arrival
| Time | N/A |
|---|---|
| Airport | Ingeniero Aeronáutico Ambrosio L.V. Taravella International Airport (SACO) |
| Time | Latitude | Longitude | Altitude | Speed | Heading |
|---|---|---|---|---|---|
| 2026-05-03 21:12 | -34.55817 | -58.41225 | 26 ft | 0 kts | 39° |
| 2026-05-03 21:13 | -34.55839 | -58.41192 | 26 ft | 0 kts | 39° |
| 2026-05-03 21:26 | -34.55848 | -58.41201 | 27 ft | 2 kts | 38° |
| 2026-05-03 21:26 | -34.55857 | -58.41209 | 27 ft | 0 kts | 39° |
| 2026-05-03 21:27 | -34.55867 | -58.41216 | 27 ft | 2 kts | 358° |
| 2026-05-03 21:27 | -34.55880 | -58.41211 | 27 ft | 0 kts | 314° |
| 2026-05-03 21:27 | -34.55884 | -58.41205 | 27 ft | 1 kts | 307° |
| 2026-05-03 21:27 | -34.55885 | -58.41202 | 27 ft | 0 kts | 308° |
| 2026-05-03 21:31 | -34.55882 | -58.41207 | 27 ft | 2 kts | 309° |
| 2026-05-03 21:31 | -34.55862 | -58.41236 | 27 ft | 6 kts | 311° |
| 2026-05-03 21:31 | -34.55863 | -58.41297 | 27 ft | 10 kts | 215° |
| 2026-05-03 21:31 | -34.55924 | -58.41300 | 27 ft | 9 kts | 128° |
| 2026-05-03 21:32 | -34.55964 | -58.41234 | 27 ft | 9 kts | 128° |
| 2026-05-03 21:32 | -34.55978 | -58.41213 | 27 ft | 9 kts | 127° |
| 2026-05-03 21:33 | -34.56124 | -58.40976 | 26 ft | 9 kts | 123° |
| 2026-05-03 21:33 | -34.56157 | -58.40909 | 27 ft | 9 kts | 114° |
| 2026-05-03 21:33 | -34.56181 | -58.40839 | 27 ft | 8 kts | 101° |
| 2026-05-03 21:33 | -34.56202 | -58.40771 | 27 ft | 8 kts | 124° |
| 2026-05-03 21:34 | -34.56220 | -58.40737 | 27 ft | 0 kts | 123° |
| 2026-05-03 21:34 | -34.56221 | -58.40736 | 27 ft | 0 kts | 123° |
| 2026-05-03 21:35 | -34.56221 | -58.40735 | 27 ft | 0 kts | 123° |
| 2026-05-03 21:35 | -34.56223 | -58.40732 | 27 ft | 0 kts | 123° |
| 2026-05-03 21:35 | -34.56225 | -58.40727 | 27 ft | 0 kts | 123° |
| 2026-05-03 21:35 | -34.56231 | -58.40717 | 27 ft | 2 kts | 123° |
| 2026-05-03 21:36 | -34.56242 | -58.40698 | 27 ft | 0 kts | 124° |
| 2026-05-03 21:40 | -34.56244 | -58.40694 | 27 ft | 1 kts | 124° |
| 2026-05-03 21:41 | -34.56255 | -58.40675 | 27 ft | 4 kts | 125° |
| 2026-05-03 21:41 | -34.56266 | -58.40655 | 27 ft | 0 kts | 123° |
| 2026-05-03 21:41 | -34.56268 | -58.40652 | 27 ft | 1 kts | 123° |
| 2026-05-03 21:41 | -34.56276 | -58.40636 | 27 ft | 1 kts | 123° |
| 2026-05-03 21:42 | -34.56278 | -58.40631 | 27 ft | 0 kts | 123° |
| 2026-05-03 21:42 | -34.56283 | -58.40624 | 27 ft | 0 kts | 124° |
| 2026-05-03 21:43 | -34.56283 | -58.40622 | 27 ft | 0 kts | 124° |
| 2026-05-03 21:43 | -34.56291 | -58.40609 | 27 ft | 3 kts | 124° |
| 2026-05-03 21:44 | -34.56313 | -58.40577 | 27 ft | 6 kts | 138° |
| 2026-05-03 21:44 | -34.56326 | -58.40564 | 27 ft | 0 kts | 137° |
| 2026-05-03 21:45 | -34.56330 | -58.40559 | 27 ft | 2 kts | 137° |
| 2026-05-03 21:45 | -34.56338 | -58.40550 | 27 ft | 0 kts | 138° |
| 2026-05-03 21:48 | -34.56339 | -58.40550 | 27 ft | 0 kts | 138° |
| 2026-05-03 21:48 | -34.56353 | -58.40534 | 27 ft | 5 kts | 139° |
| 2026-05-03 21:48 | -34.56370 | -58.40516 | 27 ft | 0 kts | 136° |
| 2026-05-03 21:50 | -34.56370 | -58.40514 | 27 ft | 0 kts | 136° |
| 2026-05-03 21:51 | -34.56380 | -58.40505 | 27 ft | 2 kts | 136° |
| 2026-05-03 21:51 | -34.56398 | -58.40484 | 27 ft | 4 kts | 138° |
| 2026-05-03 21:51 | -34.56408 | -58.40474 | 27 ft | 0 kts | 138° |
| 2026-05-03 21:54 | -34.56414 | -58.40467 | 27 ft | 4 kts | 138° |
| 2026-05-03 21:54 | -34.56451 | -58.40426 | 27 ft | 8 kts | 137° |
| 2026-05-03 21:54 | -34.56502 | -58.40385 | 27 ft | 9 kts | 174° |
| 2026-05-03 21:54 | -34.56557 | -58.40424 | 27 ft | 8 kts | 237° |
| 2026-05-03 21:55 | -34.56554 | -58.40447 | 27 ft | 0 kts | 304° |
| 2026-05-03 21:55 | -34.56546 | -58.40461 | 27 ft | 13 kts | 305° |
| 2026-05-03 21:55 | -34.56356 | -58.40801 | 27 ft | 84 kts | 304° |
| 2026-05-03 21:55 | -34.55911 | -58.41606 | 51 ft | 139 kts | 303° |
| 2026-05-03 21:56 | -34.55379 | -58.42571 | 621 ft | 135 kts | 306° |
| 2026-05-03 21:56 | -34.54847 | -58.43488 | 1165 ft | 133 kts | 321° |
| 2026-05-03 21:56 | -34.54011 | -58.43747 | 1647 ft | 130 kts | 15° |
| 2026-05-03 21:56 | -34.53194 | -58.43213 | 2037 ft | 138 kts | 29° |
| 2026-05-03 21:57 | -34.52363 | -58.42509 | 2305 ft | 151 kts | 32° |
| 2026-05-03 21:57 | -34.51470 | -58.41752 | 2618 ft | 166 kts | 31° |
| 2026-05-03 21:57 | -34.50485 | -58.40907 | 3005 ft | 183 kts | 31° |
| 2026-05-03 21:57 | -34.49386 | -58.39989 | 3456 ft | 200 kts | 32° |
| 2026-05-03 21:58 | -34.48159 | -58.39001 | 3801 ft | 224 kts | 31° |
| 2026-05-03 21:58 | -34.46811 | -58.37914 | 4319 ft | 242 kts | 31° |
| 2026-05-03 21:58 | -34.45357 | -58.36727 | 4871 ft | 259 kts | 31° |
| 2026-05-03 21:58 | -34.43843 | -58.35462 | 5697 ft | 264 kts | 31° |
| 2026-05-03 21:59 | -34.42247 | -58.34297 | 6550 ft | 264 kts | 16° |
| 2026-05-03 21:59 | -34.40445 | -58.34017 | 7214 ft | 266 kts | 349° |
| 2026-05-03 21:59 | -34.38718 | -58.34786 | 8112 ft | 264 kts | 330° |
| 2026-05-03 21:59 | -34.37161 | -58.35954 | 8907 ft | 266 kts | 325° |
| 2026-05-03 22:00 | -34.35607 | -58.37232 | 9624 ft | 271 kts | 323° |
| 2026-05-03 22:00 | -34.34036 | -58.38546 | 10351 ft | 275 kts | 323° |
| 2026-05-03 22:00 | -34.32409 | -58.39901 | 10883 ft | 285 kts | 322° |
| 2026-05-03 22:00 | -34.30770 | -58.41266 | 11469 ft | 291 kts | 322° |
| 2026-05-03 22:01 | -34.29162 | -58.42596 | 12111 ft | 294 kts | 321° |
| 2026-05-03 22:01 | -34.27455 | -58.44011 | 12739 ft | 297 kts | 321° |
| 2026-05-03 22:01 | -34.25746 | -58.45428 | 13360 ft | 301 kts | 321° |
| 2026-05-03 22:01 | -34.24018 | -58.46858 | 13985 ft | 303 kts | 321° |
| 2026-05-03 22:02 | -34.22292 | -58.48279 | 14905 ft | 294 kts | 320° |
| 2026-05-03 22:02 | -34.20656 | -58.49622 | 15864 ft | 282 kts | 320° |
| 2026-05-03 22:02 | -34.19086 | -58.50911 | 16776 ft | 270 kts | 319° |
| 2026-05-03 22:02 | -34.17559 | -58.52169 | 17494 ft | 265 kts | 318° |
| 2026-05-03 22:03 | -34.16039 | -58.53428 | 17999 ft | 267 kts | 318° |
| 2026-05-03 22:03 | -34.14507 | -58.54702 | 18483 ft | 269 kts | 316° |
| 2026-05-03 22:03 | -34.13236 | -58.56282 | 18946 ft | 260 kts | 294° |
| 2026-05-03 22:03 | -34.12639 | -58.58300 | 19395 ft | 255 kts | 276° |
| 2026-05-03 22:04 | -34.12375 | -58.60479 | 19678 ft | 270 kts | 274° |
| 2026-05-03 22:04 | -34.12122 | -58.62805 | 19968 ft | 286 kts | 274° |
| 2026-05-03 22:04 | -34.11854 | -58.65229 | 20278 ft | 300 kts | 275° |
| 2026-05-03 22:04 | -34.11566 | -58.67787 | 20788 ft | 304 kts | 275° |
| 2026-05-03 22:05 | -34.11276 | -58.70347 | 21261 ft | 307 kts | 275° |
| 2026-05-03 22:05 | -34.10988 | -58.72871 | 21714 ft | 309 kts | 275° |
| 2026-05-03 22:05 | -34.10693 | -58.75446 | 22178 ft | 311 kts | 275° |
| 2026-05-03 22:05 | -34.10392 | -58.78080 | 22420 ft | 320 kts | 275° |
| 2026-05-03 22:06 | -34.10083 | -58.80766 | 22608 ft | 330 kts | 275° |
| 2026-05-03 22:06 | -34.09758 | -58.83564 | 22859 ft | 338 kts | 275° |
| 2026-05-03 22:06 | -34.09428 | -58.86389 | 23268 ft | 340 kts | 275° |
| 2026-05-03 22:06 | -34.09097 | -58.89227 | 23676 ft | 343 kts | 275° |
| 2026-05-03 22:07 | -34.08747 | -58.92214 | 24099 ft | 345 kts | 275° |
| 2026-05-03 22:07 | -34.08410 | -58.95100 | 24493 ft | 347 kts | 275° |
| 2026-05-03 22:07 | -34.08058 | -58.98069 | 24894 ft | 349 kts | 275° |
| 2026-05-03 22:07 | -34.07710 | -59.01051 | 25280 ft | 351 kts | 275° |
| 2026-05-03 22:08 | -34.07367 | -59.04019 | 25639 ft | 354 kts | 275° |
| 2026-05-03 22:08 | -34.07003 | -59.07129 | 26021 ft | 356 kts | 275° |
| 2026-05-03 22:08 | -34.06644 | -59.10192 | 26377 ft | 359 kts | 275° |
| 2026-05-03 22:08 | -34.06117 | -59.13143 | 26707 ft | 365 kts | 284° |
| 2026-05-03 22:09 | -34.05112 | -59.15988 | 27043 ft | 373 kts | 294° |
| 2026-05-03 22:09 | -34.03625 | -59.18634 | 27386 ft | 380 kts | 303° |
| 2026-05-03 22:09 | -34.01944 | -59.21109 | 27714 ft | 383 kts | 304° |
| 2026-05-03 22:10 | -33.98460 | -59.26108 | 28331 ft | 388 kts | 304° |
| 2026-05-03 22:10 | -33.96714 | -59.28612 | 28665 ft | 389 kts | 304° |
| 2026-05-03 22:10 | -33.94987 | -59.31089 | 29004 ft | 390 kts | 304° |
| 2026-05-03 22:10 | -33.93209 | -59.33642 | 29303 ft | 392 kts | 304° |
| 2026-05-03 22:11 | -33.91426 | -59.36201 | 29598 ft | 394 kts | 303° |
| 2026-05-03 22:11 | -33.89631 | -59.38778 | 29880 ft | 396 kts | 303° |
| 2026-05-03 22:11 | -33.87849 | -59.41336 | 30140 ft | 398 kts | 303° |
| 2026-05-03 22:11 | -33.86067 | -59.43893 | 30397 ft | 400 kts | 303° |
| 2026-05-03 22:12 | -33.84336 | -59.46373 | 30635 ft | 402 kts | 303° |
| 2026-05-03 22:12 | -33.82521 | -59.48973 | 30875 ft | 404 kts | 303° |
| 2026-05-03 22:12 | -33.80662 | -59.51635 | 31118 ft | 406 kts | 303° |
| 2026-05-03 22:12 | -33.78844 | -59.54235 | 31345 ft | 408 kts | 303° |
| 2026-05-03 22:13 | -33.77006 | -59.56861 | 31576 ft | 410 kts | 303° |
| 2026-05-03 22:13 | -33.75150 | -59.59513 | 31794 ft | 412 kts | 303° |